sensor_id;sensor_type;location;lat;lon;timestamp;P1;durP1;ratioP1;P2;durP2;ratioP2
11054;SDS011;5580;50.106;8.702;2023-04-25T00:00:20;14.27;;;8.10;;
11054;SDS011;5580;50.106;8.702;2023-04-25T00:02:46;15.50;;;8.80;;
11054;SDS011;5580;50.106;8.702;2023-04-25T00:05:12;13.27;;;8.50;;
11054;SDS011;5580;50.106;8.702;2023-04-25T00:07:39;12.30;;;8.10;;
11054;SDS011;5580;50.106;8.702;2023-04-25T00:10:07;12.20;;;7.93;;
11054;SDS011;5580;50.106;8.702;2023-04-25T00:12:34;12.77;;;7.60;;
11054;SDS011;5580;50.106;8.702;2023-04-25T00:15:00;11.83;;;7.60;;
11054;SDS011;5580;50.106;8.702;2023-04-25T00:17:26;13.03;;;7.40;;
11054;SDS011;5580;50.106;8.702;2023-04-25T00:19:52;12.73;;;7.23;;
11054;SDS011;5580;50.106;8.702;2023-04-25T00:22:17;11.53;;;7.30;;
11054;SDS011;5580;50.106;8.702;2023-04-25T00:24:43;13.17;;;7.80;;
11054;SDS011;5580;50.106;8.702;2023-04-25T00:27:09;13.60;;;7.63;;
11054;SDS011;5580;50.106;8.702;2023-04-25T00:29:34;10.67;;;6.80;;
11054;SDS011;5580;50.106;8.702;2023-04-25T00:32:00;11.43;;;7.30;;
11054;SDS011;5580;50.106;8.702;2023-04-25T00:34:26;12.97;;;7.17;;
11054;SDS011;5580;50.106;8.702;2023-04-25T00:36:51;10.97;;;6.87;;
11054;SDS011;5580;50.106;8.702;2023-04-25T00:39:17;10.70;;;6.83;;
11054;SDS011;5580;50.106;8.702;2023-04-25T00:41:42;10.93;;;6.83;;
11054;SDS011;5580;50.106;8.702;2023-04-25T00:44:09;11.20;;;6.70;;
11054;SDS011;5580;50.106;8.702;2023-04-25T00:46:37;11.50;;;7.00;;
11054;SDS011;5580;50.106;8.702;2023-04-25T00:49:03;10.67;;;6.87;;
11054;SDS011;5580;50.106;8.702;2023-04-25T00:51:29;10.80;;;6.47;;
11054;SDS011;5580;50.106;8.702;2023-04-25T00:53:57;10.27;;;6.60;;
11054;SDS011;5580;50.106;8.702;2023-04-25T00:56:23;11.50;;;6.50;;
11054;SDS011;5580;50.106;8.702;2023-04-25T00:58:49;10.33;;;6.90;;
11054;SDS011;5580;50.106;8.702;2023-04-25T01:01:18;10.93;;;6.67;;
11054;SDS011;5580;50.106;8.702;2023-04-25T01:03:44;11.20;;;6.80;;
11054;SDS011;5580;50.106;8.702;2023-04-25T01:06:11;10.70;;;6.93;;
11054;SDS011;5580;50.106;8.702;2023-04-25T01:08:37;9.97;;;6.57;;
11054;SDS011;5580;50.106;8.702;2023-04-25T01:11:04;11.37;;;7.13;;
11054;SDS011;5580;50.106;8.702;2023-04-25T01:13:30;10.60;;;7.27;;
11054;SDS011;5580;50.106;8.702;2023-04-25T01:15:56;11.23;;;6.73;;
11054;SDS011;5580;50.106;8.702;2023-04-25T01:18:23;12.40;;;6.90;;
11054;SDS011;5580;50.106;8.702;2023-04-25T01:20:50;12.23;;;7.47;;
11054;SDS011;5580;50.106;8.702;2023-04-25T01:23:16;11.80;;;7.30;;
11054;SDS011;5580;50.106;8.702;2023-04-25T01:25:43;11.83;;;7.47;;
11054;SDS011;5580;50.106;8.702;2023-04-25T01:28:10;11.57;;;7.03;;
11054;SDS011;5580;50.106;8.702;2023-04-25T01:30:36;12.30;;;7.57;;
11054;SDS011;5580;50.106;8.702;2023-04-25T01:33:02;12.83;;;7.50;;
11054;SDS011;5580;50.106;8.702;2023-04-25T01:35:30;10.87;;;7.20;;
11054;SDS011;5580;50.106;8.702;2023-04-25T01:37:56;12.37;;;7.20;;
11054;SDS011;5580;50.106;8.702;2023-04-25T01:40:22;12.27;;;7.23;;
11054;SDS011;5580;50.106;8.702;2023-04-25T01:42:50;10.30;;;6.70;;
11054;SDS011;5580;50.106;8.702;2023-04-25T01:45:16;12.73;;;7.43;;
11054;SDS011;5580;50.106;8.702;2023-04-25T01:47:42;12.03;;;6.80;;
11054;SDS011;5580;50.106;8.702;2023-04-25T01:50:11;11.43;;;7.20;;
11054;SDS011;5580;50.106;8.702;2023-04-25T01:52:37;11.90;;;7.30;;
11054;SDS011;5580;50.106;8.702;2023-04-25T01:55:03;14.30;;;7.33;;
11054;SDS011;5580;50.106;8.702;2023-04-25T01:57:29;12.80;;;7.47;;
11054;SDS011;5580;50.106;8.702;2023-04-25T01:59:57;12.67;;;7.27;;
11054;SDS011;5580;50.106;8.702;2023-04-25T02:02:25;11.77;;;7.23;;
11054;SDS011;5580;50.106;8.702;2023-04-25T02:04:51;12.13;;;7.00;;
11054;SDS011;5580;50.106;8.702;2023-04-25T02:07:16;12.00;;;6.97;;
11054;SDS011;5580;50.106;8.702;2023-04-25T02:09:42;12.67;;;7.13;;
11054;SDS011;5580;50.106;8.702;2023-04-25T02:12:09;14.13;;;7.47;;
11054;SDS011;5580;50.106;8.702;2023-04-25T02:14:35;13.00;;;7.87;;
11054;SDS011;5580;50.106;8.702;2023-04-25T02:17:01;13.60;;;7.40;;
11054;SDS011;5580;50.106;8.702;2023-04-25T02:19:27;11.20;;;7.20;;
11054;SDS011;5580;50.106;8.702;2023-04-25T02:21:52;11.20;;;7.13;;
11054;SDS011;5580;50.106;8.702;2023-04-25T02:24:18;11.80;;;7.30;;
11054;SDS011;5580;50.106;8.702;2023-04-25T02:26:43;11.77;;;7.67;;
11054;SDS011;5580;50.106;8.702;2023-04-25T02:29:09;12.20;;;7.93;;
11054;SDS011;5580;50.106;8.702;2023-04-25T02:31:35;11.33;;;7.47;;
11054;SDS011;5580;50.106;8.702;2023-04-25T02:34:00;11.67;;;8.03;;
11054;SDS011;5580;50.106;8.702;2023-04-25T02:36:26;12.10;;;8.17;;
11054;SDS011;5580;50.106;8.702;2023-04-25T02:38:52;12.87;;;8.60;;
11054;SDS011;5580;50.106;8.702;2023-04-25T02:41:18;12.70;;;8.60;;
11054;SDS011;5580;50.106;8.702;2023-04-25T02:43:43;13.43;;;8.40;;
11054;SDS011;5580;50.106;8.702;2023-04-25T02:46:09;14.77;;;8.50;;
11054;SDS011;5580;50.106;8.702;2023-04-25T02:48:34;12.47;;;8.17;;
11054;SDS011;5580;50.106;8.702;2023-04-25T02:51:00;16.63;;;9.00;;
11054;SDS011;5580;50.106;8.702;2023-04-25T02:53:26;14.10;;;8.93;;
11054;SDS011;5580;50.106;8.702;2023-04-25T02:55:51;14.13;;;8.93;;
11054;SDS011;5580;50.106;8.702;2023-04-25T02:58:17;14.27;;;9.03;;
11054;SDS011;5580;50.106;8.702;2023-04-25T03:00:43;14.93;;;9.37;;
11054;SDS011;5580;50.106;8.702;2023-04-25T03:03:09;14.03;;;9.43;;
11054;SDS011;5580;50.106;8.702;2023-04-25T03:05:34;14.17;;;9.47;;
11054;SDS011;5580;50.106;8.702;2023-04-25T03:08:00;13.37;;;9.20;;
11054;SDS011;5580;50.106;8.702;2023-04-25T03:10:25;14.53;;;9.40;;
11054;SDS011;5580;50.106;8.702;2023-04-25T03:12:51;17.30;;;9.43;;
11054;SDS011;5580;50.106;8.702;2023-04-25T03:15:17;14.77;;;9.80;;
11054;SDS011;5580;50.106;8.702;2023-04-25T03:17:42;17.10;;;9.70;;
11054;SDS011;5580;50.106;8.702;2023-04-25T03:20:08;15.70;;;10.27;;
11054;SDS011;5580;50.106;8.702;2023-04-25T03:22:34;16.90;;;10.13;;
11054;SDS011;5580;50.106;8.702;2023-04-25T03:24:59;17.63;;;10.20;;
11054;SDS011;5580;50.106;8.702;2023-04-25T03:27:25;15.70;;;10.00;;
11054;SDS011;5580;50.106;8.702;2023-04-25T03:29:51;17.20;;;10.07;;
11054;SDS011;5580;50.106;8.702;2023-04-25T03:32:16;14.37;;;9.30;;
11054;SDS011;5580;50.106;8.702;2023-04-25T03:34:42;15.50;;;9.40;;
11054;SDS011;5580;50.106;8.702;2023-04-25T03:37:07;15.67;;;9.27;;
11054;SDS011;5580;50.106;8.702;2023-04-25T03:39:33;17.07;;;9.47;;
11054;SDS011;5580;50.106;8.702;2023-04-25T03:41:58;15.43;;;9.17;;
11054;SDS011;5580;50.106;8.702;2023-04-25T03:44:24;17.27;;;10.23;;
11054;SDS011;5580;50.106;8.702;2023-04-25T03:46:50;14.50;;;9.70;;
11054;SDS011;5580;50.106;8.702;2023-04-25T03:49:16;15.07;;;9.20;;
11054;SDS011;5580;50.106;8.702;2023-04-25T03:51:41;15.63;;;9.27;;
11054;SDS011;5580;50.106;8.702;2023-04-25T03:54:07;15.33;;;8.93;;
11054;SDS011;5580;50.106;8.702;2023-04-25T03:56:32;15.27;;;9.30;;
11054;SDS011;5580;50.106;8.702;2023-04-25T03:58:58;17.43;;;9.13;;
11054;SDS011;5580;50.106;8.702;2023-04-25T04:01:24;15.07;;;9.13;;
11054;SDS011;5580;50.106;8.702;2023-04-25T04:03:50;18.50;;;9.60;;
11054;SDS011;5580;50.106;8.702;2023-04-25T04:06:16;17.27;;;9.03;;
11054;SDS011;5580;50.106;8.702;2023-04-25T04:08:41;19.57;;;8.87;;
11054;SDS011;5580;50.106;8.702;2023-04-25T04:11:07;16.57;;;9.20;;
11054;SDS011;5580;50.106;8.702;2023-04-25T04:13:32;16.93;;;8.63;;
11054;SDS011;5580;50.106;8.702;2023-04-25T04:15:58;17.50;;;8.93;;
11054;SDS011;5580;50.106;8.702;2023-04-25T04:18:24;17.23;;;9.90;;
11054;SDS011;5580;50.106;8.702;2023-04-25T04:20:49;16.10;;;9.13;;
11054;SDS011;5580;50.106;8.702;2023-04-25T04:23:15;14.57;;;8.57;;
11054;SDS011;5580;50.106;8.702;2023-04-25T04:25:41;14.03;;;8.83;;
11054;SDS011;5580;50.106;8.702;2023-04-25T04:28:06;15.67;;;9.47;;
11054;SDS011;5580;50.106;8.702;2023-04-25T04:30:32;15.40;;;9.60;;
11054;SDS011;5580;50.106;8.702;2023-04-25T04:33:01;15.20;;;9.47;;
11054;SDS011;5580;50.106;8.702;2023-04-25T04:35:27;17.57;;;9.37;;
11054;SDS011;5580;50.106;8.702;2023-04-25T04:37:53;14.90;;;8.90;;
11054;SDS011;5580;50.106;8.702;2023-04-25T04:40:19;15.70;;;8.93;;
11054;SDS011;5580;50.106;8.702;2023-04-25T04:42:45;15.43;;;8.33;;
11054;SDS011;5580;50.106;8.702;2023-04-25T04:45:11;16.57;;;7.33;;
11054;SDS011;5580;50.106;8.702;2023-04-25T04:47:37;15.77;;;7.83;;
11054;SDS011;5580;50.106;8.702;2023-04-25T04:50:04;16.03;;;8.07;;
11054;SDS011;5580;50.106;8.702;2023-04-25T04:52:33;20.20;;;8.50;;
11054;SDS011;5580;50.106;8.702;2023-04-25T04:54:59;15.90;;;7.27;;
11054;SDS011;5580;50.106;8.702;2023-04-25T04:57:24;14.97;;;7.60;;
11054;SDS011;5580;50.106;8.702;2023-04-25T04:59:50;13.73;;;7.47;;
11054;SDS011;5580;50.106;8.702;2023-04-25T05:02:16;18.10;;;8.10;;
11054;SDS011;5580;50.106;8.702;2023-04-25T05:04:42;17.17;;;7.63;;
11054;SDS011;5580;50.106;8.702;2023-04-25T05:07:07;15.27;;;7.87;;
11054;SDS011;5580;50.106;8.702;2023-04-25T05:09:33;17.10;;;8.17;;
11054;SDS011;5580;50.106;8.702;2023-04-25T05:11:58;18.53;;;7.97;;
11054;SDS011;5580;50.106;8.702;2023-04-25T05:14:25;14.80;;;8.20;;
11054;SDS011;5580;50.106;8.702;2023-04-25T05:16:51;16.70;;;7.97;;
11054;SDS011;5580;50.106;8.702;2023-04-25T05:19:17;14.70;;;7.80;;
11054;SDS011;5580;50.106;8.702;2023-04-25T05:21:43;17.80;;;7.93;;
11054;SDS011;5580;50.106;8.702;2023-04-25T05:24:08;17.97;;;7.93;;
11054;SDS011;5580;50.106;8.702;2023-04-25T05:26:34;13.93;;;7.60;;
11054;SDS011;5580;50.106;8.702;2023-04-25T05:29:00;16.83;;;8.20;;
11054;SDS011;5580;50.106;8.702;2023-04-25T05:31:25;13.87;;;6.63;;
11054;SDS011;5580;50.106;8.702;2023-04-25T05:33:51;16.40;;;7.57;;
11054;SDS011;5580;50.106;8.702;2023-04-25T05:36:18;13.60;;;7.03;;
11054;SDS011;5580;50.106;8.702;2023-04-25T05:38:44;13.13;;;6.87;;
11054;SDS011;5580;50.106;8.702;2023-04-25T05:41:10;16.70;;;7.90;;
11054;SDS011;5580;50.106;8.702;2023-04-25T05:43:35;13.37;;;6.37;;
11054;SDS011;5580;50.106;8.702;2023-04-25T05:46:01;11.87;;;5.80;;
11054;SDS011;5580;50.106;8.702;2023-04-25T05:48:26;13.30;;;6.47;;
11054;SDS011;5580;50.106;8.702;2023-04-25T05:50:52;14.50;;;6.13;;
11054;SDS011;5580;50.106;8.702;2023-04-25T05:53:18;11.53;;;6.30;;
11054;SDS011;5580;50.106;8.702;2023-04-25T05:55:44;14.80;;;6.43;;
11054;SDS011;5580;50.106;8.702;2023-04-25T05:58:10;18.57;;;6.50;;
11054;SDS011;5580;50.106;8.702;2023-04-25T06:00:35;11.50;;;6.13;;
11054;SDS011;5580;50.106;8.702;2023-04-25T06:03:01;10.83;;;6.10;;
11054;SDS011;5580;50.106;8.702;2023-04-25T06:05:27;11.13;;;6.33;;
11054;SDS011;5580;50.106;8.702;2023-04-25T06:07:53;13.47;;;6.10;;
11054;SDS011;5580;50.106;8.702;2023-04-25T06:10:19;12.43;;;6.40;;
11054;SDS011;5580;50.106;8.702;2023-04-25T06:12:44;13.43;;;6.30;;
11054;SDS011;5580;50.106;8.702;2023-04-25T06:15:10;12.37;;;6.50;;
11054;SDS011;5580;50.106;8.702;2023-04-25T06:17:35;11.63;;;6.33;;
11054;SDS011;5580;50.106;8.702;2023-04-25T06:20:01;13.03;;;6.10;;
11054;SDS011;5580;50.106;8.702;2023-04-25T06:22:28;11.07;;;6.00;;
11054;SDS011;5580;50.106;8.702;2023-04-25T06:24:54;12.07;;;6.23;;
11054;SDS011;5580;50.106;8.702;2023-04-25T06:27:22;12.73;;;6.50;;
11054;SDS011;5580;50.106;8.702;2023-04-25T06:29:47;13.27;;;6.43;;
11054;SDS011;5580;50.106;8.702;2023-04-25T06:32:13;13.67;;;7.40;;
11054;SDS011;5580;50.106;8.702;2023-04-25T06:34:39;15.27;;;6.73;;
11054;SDS011;5580;50.106;8.702;2023-04-25T06:37:04;14.63;;;7.17;;
11054;SDS011;5580;50.106;8.702;2023-04-25T06:39:30;13.37;;;6.90;;
11054;SDS011;5580;50.106;8.702;2023-04-25T06:41:56;10.13;;;6.00;;
11054;SDS011;5580;50.106;8.702;2023-04-25T06:44:21;11.00;;;6.00;;
11054;SDS011;5580;50.106;8.702;2023-04-25T06:46:49;12.37;;;5.80;;
11054;SDS011;5580;50.106;8.702;2023-04-25T06:49:14;13.67;;;6.00;;
11054;SDS011;5580;50.106;8.702;2023-04-25T06:51:40;13.17;;;6.13;;
11054;SDS011;5580;50.106;8.702;2023-04-25T06:54:06;11.90;;;5.60;;
11054;SDS011;5580;50.106;8.702;2023-04-25T06:56:31;11.67;;;5.33;;
11054;SDS011;5580;50.106;8.702;2023-04-25T06:58:57;12.50;;;5.53;;
11054;SDS011;5580;50.106;8.702;2023-04-25T07:01:23;12.23;;;5.53;;
11054;SDS011;5580;50.106;8.702;2023-04-25T07:03:48;8.77;;;5.63;;
11054;SDS011;5580;50.106;8.702;2023-04-25T07:06:14;11.67;;;5.47;;
11054;SDS011;5580;50.106;8.702;2023-04-25T07:08:40;11.73;;;5.60;;
11054;SDS011;5580;50.106;8.702;2023-04-25T07:11:05;10.73;;;5.73;;
11054;SDS011;5580;50.106;8.702;2023-04-25T07:13:31;11.40;;;5.50;;
11054;SDS011;5580;50.106;8.702;2023-04-25T07:15:56;9.83;;;5.40;;
11054;SDS011;5580;50.106;8.702;2023-04-25T07:18:22;12.93;;;5.60;;
11054;SDS011;5580;50.106;8.702;2023-04-25T07:20:48;10.40;;;5.53;;
11054;SDS011;5580;50.106;8.702;2023-04-25T07:23:13;11.27;;;5.97;;
11054;SDS011;5580;50.106;8.702;2023-04-25T07:25:39;13.17;;;6.17;;
11054;SDS011;5580;50.106;8.702;2023-04-25T07:28:04;9.73;;;5.37;;
11054;SDS011;5580;50.106;8.702;2023-04-25T07:30:30;11.03;;;5.30;;
11054;SDS011;5580;50.106;8.702;2023-04-25T07:32:56;10.17;;;5.30;;
11054;SDS011;5580;50.106;8.702;2023-04-25T07:35:21;9.97;;;5.53;;
11054;SDS011;5580;50.106;8.702;2023-04-25T07:37:47;10.30;;;5.33;;
11054;SDS011;5580;50.106;8.702;2023-04-25T07:40:13;11.13;;;5.20;;
11054;SDS011;5580;50.106;8.702;2023-04-25T07:42:41;9.53;;;5.47;;
11054;SDS011;5580;50.106;8.702;2023-04-25T07:45:07;8.97;;;5.30;;
11054;SDS011;5580;50.106;8.702;2023-04-25T07:47:34;10.33;;;5.10;;
11054;SDS011;5580;50.106;8.702;2023-04-25T07:50:00;9.67;;;5.23;;
11054;SDS011;5580;50.106;8.702;2023-04-25T07:52:26;11.37;;;5.33;;
11054;SDS011;5580;50.106;8.702;2023-04-25T07:54:51;14.20;;;5.77;;
11054;SDS011;5580;50.106;8.702;2023-04-25T07:57:17;9.43;;;5.23;;
11054;SDS011;5580;50.106;8.702;2023-04-25T07:59:43;11.80;;;4.90;;
11054;SDS011;5580;50.106;8.702;2023-04-25T08:02:09;9.37;;;5.13;;
11054;SDS011;5580;50.106;8.702;2023-04-25T08:04:34;10.23;;;5.57;;
11054;SDS011;5580;50.106;8.702;2023-04-25T08:07:00;11.50;;;5.40;;
11054;SDS011;5580;50.106;8.702;2023-04-25T08:09:25;11.57;;;5.20;;
11054;SDS011;5580;50.106;8.702;2023-04-25T08:11:51;7.80;;;4.63;;
11054;SDS011;5580;50.106;8.702;2023-04-25T08:14:17;9.97;;;5.20;;
11054;SDS011;5580;50.106;8.702;2023-04-25T08:16:42;12.10;;;6.20;;
11054;SDS011;5580;50.106;8.702;2023-04-25T08:19:09;11.37;;;6.30;;
11054;SDS011;5580;50.106;8.702;2023-04-25T08:21:35;11.80;;;6.33;;
11054;SDS011;5580;50.106;8.702;2023-04-25T08:24:01;13.43;;;6.33;;
11054;SDS011;5580;50.106;8.702;2023-04-25T08:26:28;12.63;;;6.40;;
11054;SDS011;5580;50.106;8.702;2023-04-25T08:28:54;10.77;;;5.30;;
11054;SDS011;5580;50.106;8.702;2023-04-25T08:31:19;12.10;;;5.53;;
11054;SDS011;5580;50.106;8.702;2023-04-25T08:33:45;11.03;;;5.60;;
11054;SDS011;5580;50.106;8.702;2023-04-25T08:36:11;10.13;;;5.40;;
11054;SDS011;5580;50.106;8.702;2023-04-25T08:38:37;13.27;;;6.10;;
11054;SDS011;5580;50.106;8.702;2023-04-25T08:41:02;8.83;;;5.60;;
11054;SDS011;5580;50.106;8.702;2023-04-25T08:43:28;10.30;;;5.27;;
11054;SDS011;5580;50.106;8.702;2023-04-25T08:45:56;9.87;;;5.40;;
11054;SDS011;5580;50.106;8.702;2023-04-25T08:48:28;11.53;;;5.43;;
11054;SDS011;5580;50.106;8.702;2023-04-25T08:50:56;11.30;;;5.83;;
11054;SDS011;5580;50.106;8.702;2023-04-25T08:53:22;9.40;;;5.40;;
11054;SDS011;5580;50.106;8.702;2023-04-25T08:55:52;10.53;;;5.63;;
11054;SDS011;5580;50.106;8.702;2023-04-25T08:58:19;9.27;;;5.73;;
11054;SDS011;5580;50.106;8.702;2023-04-25T09:00:46;10.63;;;6.00;;
11054;SDS011;5580;50.106;8.702;2023-04-25T09:03:13;8.03;;;5.40;;
11054;SDS011;5580;50.106;8.702;2023-04-25T09:05:40;10.97;;;5.53;;
11054;SDS011;5580;50.106;8.702;2023-04-25T09:08:05;10.20;;;5.60;;
11054;SDS011;5580;50.106;8.702;2023-04-25T09:10:31;10.03;;;5.77;;
11054;SDS011;5580;50.106;8.702;2023-04-25T09:13:04;11.13;;;6.10;;
11054;SDS011;5580;50.106;8.702;2023-04-25T09:15:46;10.23;;;5.60;;
11054;SDS011;5580;50.106;8.702;2023-04-25T09:18:13;11.80;;;5.50;;
11054;SDS011;5580;50.106;8.702;2023-04-25T09:20:54;9.07;;;5.17;;
11054;SDS011;5580;50.106;8.702;2023-04-25T09:23:21;9.20;;;4.80;;
11054;SDS011;5580;50.106;8.702;2023-04-25T09:25:48;6.80;;;4.83;;
11054;SDS011;5580;50.106;8.702;2023-04-25T09:28:15;10.63;;;5.90;;
11054;SDS011;5580;50.106;8.702;2023-04-25T09:30:41;9.57;;;5.83;;
11054;SDS011;5580;50.106;8.702;2023-04-25T09:33:08;10.83;;;5.83;;
11054;SDS011;5580;50.106;8.702;2023-04-25T09:35:36;9.27;;;5.90;;
11054;SDS011;5580;50.106;8.702;2023-04-25T09:38:06;11.27;;;6.57;;
11054;SDS011;5580;50.106;8.702;2023-04-25T09:40:42;9.50;;;6.00;;
11054;SDS011;5580;50.106;8.702;2023-04-25T09:43:09;10.17;;;5.80;;
11054;SDS011;5580;50.106;8.702;2023-04-25T09:45:45;8.93;;;5.67;;
11054;SDS011;5580;50.106;8.702;2023-04-25T09:48:16;12.07;;;5.53;;
11054;SDS011;5580;50.106;8.702;2023-04-25T09:50:44;10.77;;;5.80;;
11054;SDS011;5580;50.106;8.702;2023-04-25T09:53:10;9.83;;;5.63;;
11054;SDS011;5580;50.106;8.702;2023-04-25T09:55:35;10.30;;;5.50;;
11054;SDS011;5580;50.106;8.702;2023-04-25T09:58:06;11.13;;;5.60;;
11054;SDS011;5580;50.106;8.702;2023-04-25T10:00:32;10.53;;;5.73;;
11054;SDS011;5580;50.106;8.702;2023-04-25T10:03:00;9.27;;;5.50;;
11054;SDS011;5580;50.106;8.702;2023-04-25T10:05:29;11.27;;;5.77;;
11054;SDS011;5580;50.106;8.702;2023-04-25T10:07:57;10.53;;;6.23;;
11054;SDS011;5580;50.106;8.702;2023-04-25T10:10:26;10.87;;;6.10;;
11054;SDS011;5580;50.106;8.702;2023-04-25T10:12:54;11.10;;;6.00;;
11054;SDS011;5580;50.106;8.702;2023-04-25T10:15:20;9.90;;;5.93;;
11054;SDS011;5580;50.106;8.702;2023-04-25T10:17:47;9.90;;;5.50;;
11054;SDS011;5580;50.106;8.702;2023-04-25T10:20:14;10.23;;;5.80;;
11054;SDS011;5580;50.106;8.702;2023-04-25T10:22:46;10.57;;;5.90;;
11054;SDS011;5580;50.106;8.702;2023-04-25T10:25:13;10.37;;;5.77;;
11054;SDS011;5580;50.106;8.702;2023-04-25T10:27:39;11.53;;;5.97;;
11054;SDS011;5580;50.106;8.702;2023-04-25T10:32:39;11.03;;;6.30;;
11054;SDS011;5580;50.106;8.702;2023-04-25T10:35:11;11.73;;;5.93;;
11054;SDS011;5580;50.106;8.702;2023-04-25T10:37:38;9.43;;;6.03;;
11054;SDS011;5580;50.106;8.702;2023-04-25T10:40:21;10.13;;;5.80;;
11054;SDS011;5580;50.106;8.702;2023-04-25T10:42:47;11.13;;;6.43;;
11054;SDS011;5580;50.106;8.702;2023-04-25T10:45:13;12.47;;;6.53;;
11054;SDS011;5580;50.106;8.702;2023-04-25T10:47:45;13.23;;;6.50;;
11054;SDS011;5580;50.106;8.702;2023-04-25T10:50:11;12.83;;;6.43;;
11054;SDS011;5580;50.106;8.702;2023-04-25T10:52:39;11.87;;;6.60;;
11054;SDS011;5580;50.106;8.702;2023-04-25T10:55:07;12.33;;;6.30;;
11054;SDS011;5580;50.106;8.702;2023-04-25T11:02:30;9.07;;;5.57;;
11054;SDS011;5580;50.106;8.702;2023-04-25T11:04:56;10.87;;;6.13;;
11054;SDS011;5580;50.106;8.702;2023-04-25T11:10:08;10.03;;;5.67;;
11054;SDS011;5580;50.106;8.702;2023-04-25T11:12:34;10.57;;;5.97;;
11054;SDS011;5580;50.106;8.702;2023-04-25T11:15:00;10.40;;;6.10;;
11054;SDS011;5580;50.106;8.702;2023-04-25T11:17:28;10.77;;;5.97;;
11054;SDS011;5580;50.106;8.702;2023-04-25T11:19:54;11.43;;;5.77;;
11054;SDS011;5580;50.106;8.702;2023-04-25T11:22:21;8.93;;;5.33;;
11054;SDS011;5580;50.106;8.702;2023-04-25T11:24:47;10.00;;;5.70;;
11054;SDS011;5580;50.106;8.702;2023-04-25T11:27:13;10.80;;;5.83;;
11054;SDS011;5580;50.106;8.702;2023-04-25T11:29:39;10.80;;;6.10;;
11054;SDS011;5580;50.106;8.702;2023-04-25T11:32:05;10.17;;;5.47;;
11054;SDS011;5580;50.106;8.702;2023-04-25T11:34:31;9.07;;;5.40;;
11054;SDS011;5580;50.106;8.702;2023-04-25T11:37:00;11.87;;;5.53;;
11054;SDS011;5580;50.106;8.702;2023-04-25T11:39:27;8.30;;;5.00;;
11054;SDS011;5580;50.106;8.702;2023-04-25T11:41:54;9.33;;;5.30;;
11054;SDS011;5580;50.106;8.702;2023-04-25T11:44:20;10.37;;;5.10;;
11054;SDS011;5580;50.106;8.702;2023-04-25T11:46:46;10.57;;;5.17;;
11054;SDS011;5580;50.106;8.702;2023-04-25T11:49:13;9.73;;;5.30;;
11054;SDS011;5580;50.106;8.702;2023-04-25T11:51:42;11.83;;;5.50;;
11054;SDS011;5580;50.106;8.702;2023-04-25T11:54:09;11.23;;;5.30;;
11054;SDS011;5580;50.106;8.702;2023-04-25T11:56:35;10.13;;;5.33;;
11054;SDS011;5580;50.106;8.702;2023-04-25T11:59:01;10.27;;;5.40;;
11054;SDS011;5580;50.106;8.702;2023-04-25T12:01:29;11.50;;;5.17;;
11054;SDS011;5580;50.106;8.702;2023-04-25T12:03:56;10.83;;;5.20;;
11054;SDS011;5580;50.106;8.702;2023-04-25T12:06:28;9.17;;;5.40;;
11054;SDS011;5580;50.106;8.702;2023-04-25T12:09:00;12.67;;;5.27;;
11054;SDS011;5580;50.106;8.702;2023-04-25T12:11:29;12.57;;;5.37;;
11054;SDS011;5580;50.106;8.702;2023-04-25T12:14:03;8.77;;;5.23;;
11054;SDS011;5580;50.106;8.702;2023-04-25T12:16:29;9.40;;;4.93;;
11054;SDS011;5580;50.106;8.702;2023-04-25T12:19:05;10.93;;;5.23;;
11054;SDS011;5580;50.106;8.702;2023-04-25T12:21:31;11.33;;;5.30;;
11054;SDS011;5580;50.106;8.702;2023-04-25T12:24:08;12.43;;;5.43;;
11054;SDS011;5580;50.106;8.702;2023-04-25T12:29:16;9.57;;;5.40;;
11054;SDS011;5580;50.106;8.702;2023-04-25T12:31:49;12.27;;;5.40;;
11054;SDS011;5580;50.106;8.702;2023-04-25T12:34:16;10.43;;;5.70;;
11054;SDS011;5580;50.106;8.702;2023-04-25T12:36:46;11.63;;;5.40;;
11054;SDS011;5580;50.106;8.702;2023-04-25T12:39:15;9.53;;;5.20;;
11054;SDS011;5580;50.106;8.702;2023-04-25T12:41:41;9.23;;;5.40;;
11054;SDS011;5580;50.106;8.702;2023-04-25T12:44:06;7.20;;;4.73;;
11054;SDS011;5580;50.106;8.702;2023-04-25T12:46:32;9.90;;;5.30;;
11054;SDS011;5580;50.106;8.702;2023-04-25T12:48:58;11.53;;;5.73;;
11054;SDS011;5580;50.106;8.702;2023-04-25T12:51:23;11.63;;;5.47;;
11054;SDS011;5580;50.106;8.702;2023-04-25T12:53:50;10.50;;;5.50;;
11054;SDS011;5580;50.106;8.702;2023-04-25T12:56:17;12.90;;;5.53;;
11054;SDS011;5580;50.106;8.702;2023-04-25T12:58:43;11.13;;;5.40;;
11054;SDS011;5580;50.106;8.702;2023-04-25T13:01:09;10.63;;;5.70;;
11054;SDS011;5580;50.106;8.702;2023-04-25T13:03:34;10.23;;;5.43;;
11054;SDS011;5580;50.106;8.702;2023-04-25T13:06:00;12.77;;;5.73;;
11054;SDS011;5580;50.106;8.702;2023-04-25T13:08:26;15.37;;;5.57;;
11054;SDS011;5580;50.106;8.702;2023-04-25T13:10:51;12.60;;;5.67;;
11054;SDS011;5580;50.106;8.702;2023-04-25T13:13:17;13.77;;;6.13;;
11054;SDS011;5580;50.106;8.702;2023-04-25T13:15:43;12.27;;;5.60;;
11054;SDS011;5580;50.106;8.702;2023-04-25T13:18:08;8.80;;;5.07;;
11054;SDS011;5580;50.106;8.702;2023-04-25T13:20:34;13.63;;;5.23;;
11054;SDS011;5580;50.106;8.702;2023-04-25T13:23:00;9.73;;;5.77;;
11054;SDS011;5580;50.106;8.702;2023-04-25T13:25:25;12.10;;;5.40;;
11054;SDS011;5580;50.106;8.702;2023-04-25T13:27:51;10.80;;;5.43;;
11054;SDS011;5580;50.106;8.702;2023-04-25T13:30:16;11.93;;;5.80;;
11054;SDS011;5580;50.106;8.702;2023-04-25T13:32:42;13.00;;;5.90;;
11054;SDS011;5580;50.106;8.702;2023-04-25T13:35:09;11.17;;;5.70;;
11054;SDS011;5580;50.106;8.702;2023-04-25T13:37:36;12.53;;;5.93;;
11054;SDS011;5580;50.106;8.702;2023-04-25T13:40:03;10.80;;;5.83;;
11054;SDS011;5580;50.106;8.702;2023-04-25T13:42:33;12.37;;;5.80;;
11054;SDS011;5580;50.106;8.702;2023-04-25T13:44:59;15.43;;;6.03;;
11054;SDS011;5580;50.106;8.702;2023-04-25T13:47:24;14.90;;;6.23;;
11054;SDS011;5580;50.106;8.702;2023-04-25T13:49:52;10.60;;;5.83;;
11054;SDS011;5580;50.106;8.702;2023-04-25T13:52:18;11.37;;;6.07;;
11054;SDS011;5580;50.106;8.702;2023-04-25T13:54:43;10.93;;;5.93;;
11054;SDS011;5580;50.106;8.702;2023-04-25T13:57:09;12.20;;;5.60;;
11054;SDS011;5580;50.106;8.702;2023-04-25T13:59:36;10.90;;;5.10;;
11054;SDS011;5580;50.106;8.702;2023-04-25T14:02:01;11.73;;;5.57;;
11054;SDS011;5580;50.106;8.702;2023-04-25T14:04:27;9.63;;;5.70;;
11054;SDS011;5580;50.106;8.702;2023-04-25T14:06:53;11.80;;;5.73;;
11054;SDS011;5580;50.106;8.702;2023-04-25T14:09:19;12.83;;;5.80;;
11054;SDS011;5580;50.106;8.702;2023-04-25T14:11:47;9.27;;;5.60;;
11054;SDS011;5580;50.106;8.702;2023-04-25T14:14:12;12.37;;;5.90;;
11054;SDS011;5580;50.106;8.702;2023-04-25T14:16:41;13.30;;;5.97;;
11054;SDS011;5580;50.106;8.702;2023-04-25T14:19:06;13.10;;;5.73;;
11054;SDS011;5580;50.106;8.702;2023-04-25T14:21:32;10.83;;;5.17;;
11054;SDS011;5580;50.106;8.702;2023-04-25T14:23:58;12.87;;;5.80;;
11054;SDS011;5580;50.106;8.702;2023-04-25T14:26:23;10.50;;;5.03;;
11054;SDS011;5580;50.106;8.702;2023-04-25T14:28:49;12.10;;;5.07;;
11054;SDS011;5580;50.106;8.702;2023-04-25T14:31:16;11.23;;;5.13;;
11054;SDS011;5580;50.106;8.702;2023-04-25T14:33:41;10.27;;;5.30;;
11054;SDS011;5580;50.106;8.702;2023-04-25T14:36:08;10.57;;;5.00;;
11054;SDS011;5580;50.106;8.702;2023-04-25T14:38:34;13.57;;;4.97;;
11054;SDS011;5580;50.106;8.702;2023-04-25T14:40:59;7.83;;;4.57;;
11054;SDS011;5580;50.106;8.702;2023-04-25T14:43:25;8.57;;;4.83;;
11054;SDS011;5580;50.106;8.702;2023-04-25T14:45:51;8.97;;;4.67;;
11054;SDS011;5580;50.106;8.702;2023-04-25T14:48:17;9.87;;;4.90;;
11054;SDS011;5580;50.106;8.702;2023-04-25T14:50:44;6.13;;;4.50;;
11054;SDS011;5580;50.106;8.702;2023-04-25T14:53:10;9.00;;;4.30;;
11054;SDS011;5580;50.106;8.702;2023-04-25T14:55:37;7.57;;;4.30;;
11054;SDS011;5580;50.106;8.702;2023-04-25T14:58:02;8.60;;;4.47;;